Time;durP1;ratioP1;P1;durP2;ratioP2;P2;SDS_P1;SDS_P2;PMS_P1;PMS_P2;Temp;Humidity;BMP_temperature;BMP_pressure;BME280_temperature;BME280_humidity;BME280_pressure;Samples;Min_cycle;Max_cycle;Signal;HPM_P1;HPM_P2
2021/06/01 00:01:40;;;;;;;2.85;0.88;;;17.40;90.20;;;;;;5100408;27;20035;-77
2021/06/01 00:04:10;;;;;;;2.15;0.85;;;17.50;90.30;;;;;;5099086;27;20035;-77
2021/06/01 00:06:42;;;;;;;3.53;1.05;;;17.50;90.20;;;;;;5100022;28;20067;-77
2021/06/01 00:09:16;;;;;;;1.00;0.90;;;17.50;90.30;;;;;;5100141;27;20569;-77
2021/06/01 00:11:47;;;;;;;1.83;0.90;;;17.40;90.70;;;;;;5104284;28;20050;-76
2021/06/01 00:14:25;;;;;;;2.25;0.95;;;17.40;90.40;;;;;;5087951;28;20044;-76
2021/06/01 00:17:08;;;;;;;2.75;0.93;;;17.30;90.60;;;;;;5085251;28;20381;-76
2021/06/01 00:19:50;;;;;;;1.45;0.70;;;17.30;90.50;;;;;;5098603;28;20051;-77
2021/06/01 00:22:28;;;;;;;1.10;0.85;;;17.30;90.10;;;;;;5083193;28;20136;-77
2021/06/01 00:24:58;;;;;;;1.77;0.98;;;17.20;90.00;;;;;;5098386;27;20633;-76
2021/06/01 00:27:27;;;;;;;3.83;0.90;;;17.20;89.90;;;;;;5101197;27;20048;-77
2021/06/01 00:29:57;;;;;;;0.93;0.80;;;17.30;89.70;;;;;;5101114;28;20047;-76
2021/06/01 00:32:27;;;;;;;2.17;0.90;;;17.30;90.30;;;;;;5100871;27;20396;-77
2021/06/01 00:34:57;;;;;;;2.72;0.90;;;17.20;91.30;;;;;;5080288;27;20406;-77
2021/06/01 00:37:31;;;;;;;3.88;1.23;;;17.20;90.90;;;;;;5100840;28;20068;-77
2021/06/01 00:40:12;;;;;;;1.55;0.90;;;17.00;91.50;;;;;;5084304;27;20051;-77
2021/06/01 00:42:52;;;;;;;1.52;1.05;;;17.10;91.60;;;;;;5119226;27;20064;-77
2021/06/01 00:45:26;;;;;;;2.10;1.10;;;17.00;91.50;;;;;;5102167;28;20040;-77
2021/06/01 00:47:56;;;;;;;1.83;1.00;;;17.00;91.30;;;;;;5097077;28;20150;-77
2021/06/01 00:50:28;;;;;;;2.13;0.90;;;17.00;90.90;;;;;;5094387;27;20681;-77
2021/06/01 00:53:00;;;;;;;3.33;1.10;;;17.00;90.50;;;;;;5080716;28;20386;-77
2021/06/01 00:55:30;;;;;;;3.65;1.25;;;17.00;90.10;;;;;;5098462;27;20150;-77
2021/06/01 00:57:59;;;;;;;1.00;0.90;;;17.00;90.60;;;;;;5101112;28;20047;-77
2021/06/01 01:03:17;;;;;;;2.03;0.82;;;16.80;90.70;;;;;;5097983;28;20036;-77
2021/06/01 01:05:50;;;;;;;2.40;0.88;;;16.80;91.10;;;;;;5098410;28;20039;-77
2021/06/01 01:11:02;;;;;;;1.27;0.90;;;16.70;91.50;;;;;;5103399;27;20040;-77
2021/06/01 01:13:40;;;;;;;4.38;0.90;;;16.70;91.30;;;;;;5104342;27;20067;-77
2021/06/01 01:16:12;;;;;;;0.90;0.77;;;16.80;90.80;;;;;;5097644;28;20035;-77
2021/06/01 01:18:47;;;;;;;1.80;0.90;;;16.80;90.60;;;;;;5100396;27;20572;-77
2021/06/01 01:21:21;;;;;;;1.95;0.65;;;16.80;90.90;;;;;;5083138;27;20035;-77
2021/06/01 01:24:02;;;;;;;1.75;1.00;;;16.80;91.20;;;;;;5099426;27;20062;-77
2021/06/01 01:26:51;;;;;;;1.42;1.10;;;16.80;91.30;;;;;;5099570;27;20043;-77
2021/06/01 01:29:32;;;;;;;1.08;0.75;;;16.90;91.20;;;;;;5096183;27;20044;-77
2021/06/01 01:32:04;;;;;;;2.20;0.90;;;16.70;91.60;;;;;;5096175;28;20046;-77
2021/06/01 01:34:37;;;;;;;0.93;0.80;;;16.70;91.90;;;;;;5099773;27;20047;-77
2021/06/01 01:37:08;;;;;;;2.33;0.80;;;16.60;92.00;;;;;;5114836;27;20100;-77
2021/06/01 01:39:45;;;;;;;2.00;0.90;;;16.60;92.20;;;;;;5101101;27;20050;-77
2021/06/01 01:42:17;;;;;;;1.60;1.38;;;16.60;92.30;;;;;;5083602;28;20043;-77
2021/06/01 01:44:52;;;;;;;1.20;1.00;;;16.50;92.80;;;;;;5081212;28;20931;-77
2021/06/01 01:50:09;;;;;;;1.55;0.98;;;16.50;93.40;;;;;;5101078;28;20445;-77
2021/06/01 01:52:40;;;;;;;2.38;0.90;;;16.40;93.50;;;;;;5080037;28;20051;-77
2021/06/01 01:55:12;;;;;;;6.35;1.90;;;16.30;93.30;;;;;;5098394;27;20079;-77
2021/06/01 01:57:45;;;;;;;2.65;0.93;;;16.20;93.50;;;;;;5098307;27;20036;-77
2021/06/01 02:00:17;;;;;;;1.73;0.73;;;16.10;93.50;;;;;;5098653;28;20036;-77
2021/06/01 02:02:48;;;;;;;1.38;0.70;;;16.10;93.70;;;;;;5099863;28;20040;-77
2021/06/01 02:05:21;;;;;;;1.17;1.00;;;16.20;93.80;;;;;;5102879;27;20220;-77
2021/06/01 02:07:51;;;;;;;1.85;1.17;;;16.10;94.00;;;;;;5101630;27;20949;-77
2021/06/01 02:10:26;;;;;;;1.85;0.95;;;16.00;94.50;;;;;;5098150;27;20687;-77
2021/06/01 02:12:56;;;;;;;1.52;1.00;;;16.10;94.90;;;;;;5092017;27;20067;-77
2021/06/01 02:15:27;;;;;;;2.83;1.00;;;16.10;94.50;;;;;;5098426;28;20040;-77
2021/06/01 02:17:56;;;;;;;1.73;1.08;;;16.10;94.70;;;;;;5099756;28;20039;-77
2021/06/01 02:20:30;;;;;;;2.25;1.40;;;16.20;94.70;;;;;;5097748;28;20117;-77
2021/06/01 02:25:58;;;;;;;1.95;1.38;;;16.00;95.10;;;;;;5097594;27;20624;-77
2021/06/01 02:28:28;;;;;;;;;;;16.10;95.10;;;;;;5105480;27;20130;-77
2021/06/01 02:31:04;;;;;;;3.78;1.08;;;16.00;94.70;;;;;;5097448;27;19951;-77
2021/06/01 02:33:37;;;;;;;1.88;0.93;;;16.00;94.90;;;;;;5097196;27;20557;-77
2021/06/01 02:36:13;;;;;;;1.00;0.80;;;16.00;94.70;;;;;;5095674;28;20036;-77
2021/06/01 02:38:43;;;;;;;2.78;1.08;;;15.90;94.40;;;;;;5115392;27;20477;-77
2021/06/01 02:41:15;;;;;;;2.58;0.93;;;15.80;94.50;;;;;;5104206;27;20062;-77
2021/06/01 02:43:45;;;;;;;2.30;0.75;;;15.70;94.90;;;;;;5094788;27;20152;-77
2021/06/01 02:46:17;;;;;;;1.73;0.93;;;15.40;95.80;;;;;;5081944;28;20082;-77
2021/06/01 02:48:48;;;;;;;0.95;0.70;;;15.50;95.60;;;;;;5098026;28;20739;-77
2021/06/01 02:51:21;;;;;;;1.17;0.95;;;15.60;95.20;;;;;;5104701;27;20039;-77
2021/06/01 02:53:53;;;;;;;1.63;1.00;;;15.40;95.20;;;;;;5094987;27;20058;-77
2021/06/01 02:56:23;;;;;;;2.97;1.00;;;15.30;96.20;;;;;;5097951;28;20569;-77
2021/06/01 02:58:53;;;;;;;2.13;0.95;;;15.20;96.70;;;;;;5090440;28;20052;-77
2021/06/01 03:01:25;;;;;;;1.65;1.13;;;15.10;96.70;;;;;;5097144;28;20550;-77
2021/06/01 03:03:55;;;;;;;3.40;1.00;;;15.00;96.70;;;;;;5078125;28;20065;-77
2021/06/01 03:06:29;;;;;;;1.83;1.02;;;14.90;96.70;;;;;;5097741;27;20048;-77
2021/06/01 03:08:58;;;;;;;2.13;0.88;;;14.80;96.70;;;;;;5097329;28;20063;-77
2021/06/01 03:11:27;;;;;;;1.98;0.93;;;15.00;96.70;;;;;;5099970;27;20404;-77
2021/06/01 03:13:56;;;;;;;2.55;1.00;;;15.10;96.70;;;;;;5097257;28;20062;-77
2021/06/01 03:16:25;;;;;;;4.05;1.20;;;15.20;96.70;;;;;;5101905;28;20051;-78
2021/06/01 03:18:55;;;;;;;2.08;0.95;;;15.20;96.70;;;;;;5096189;28;20052;-77
2021/06/01 03:21:27;;;;;;;1.73;0.95;;;15.00;96.70;;;;;;5097922;28;20063;-77
2021/06/01 03:23:57;;;;;;;1.38;1.10;;;15.00;96.70;;;;;;5094702;28;20035;-77
2021/06/01 03:26:28;;;;;;;1.65;1.00;;;15.00;96.70;;;;;;5101032;28;20052;-77
2021/06/01 03:28:58;;;;;;;1.20;0.90;;;15.10;96.70;;;;;;5115277;27;20523;-77
2021/06/01 03:31:31;;;;;;;4.75;1.48;;;15.10;96.70;;;;;;5100800;28;20051;-77
2021/06/01 03:34:00;;;;;;;3.70;1.00;;;15.10;96.70;;;;;;5100235;28;20039;-77
2021/06/01 03:36:32;;;;;;;2.28;1.13;;;15.00;96.70;;;;;;5102244;27;20089;-77
2021/06/01 03:39:05;;;;;;;3.85;1.15;;;15.00;96.70;;;;;;5117991;27;20104;-77
2021/06/01 03:41:35;;;;;;;1.45;0.95;;;15.00;96.70;;;;;;5098510;28;20047;-77
2021/06/01 03:44:05;;;;;;;3.45;1.00;;;15.00;96.70;;;;;;5099382;28;20151;-77
2021/06/01 03:46:35;;;;;;;3.45;1.40;;;15.00;96.70;;;;;;5097923;28;20251;-77
2021/06/01 03:49:04;;;;;;;1.98;1.15;;;14.90;96.70;;;;;;5095070;27;20139;-77
2021/06/01 03:51:36;;;;;;;3.10;1.02;;;14.70;96.70;;;;;;5097460;27;20130;-77
2021/06/01 03:54:06;;;;;;;3.55;1.30;;;14.50;96.70;;;;;;5098631;28;20039;-77
2021/06/01 03:56:37;;;;;;;1.58;1.20;;;14.10;96.70;;;;;;5104054;28;20059;-77
2021/06/01 03:59:07;;;;;;;2.25;1.40;;;14.30;96.70;;;;;;5101676;27;20079;-77
2021/06/01 04:01:37;;;;;;;4.18;1.50;;;14.50;96.70;;;;;;5104529;27;20039;-77
2021/06/01 04:04:07;;;;;;;1.65;1.23;;;14.50;96.70;;;;;;5100530;27;20053;-77
2021/06/01 04:06:39;;;;;;;4.63;1.20;;;14.50;96.70;;;;;;5100268;27;20058;-77
2021/06/01 04:09:09;;;;;;;2.03;1.15;;;14.60;96.70;;;;;;5104507;27;20063;-77
2021/06/01 04:11:40;;;;;;;3.85;1.38;;;14.70;96.70;;;;;;5101465;27;20060;-77
2021/06/01 04:14:09;;;;;;;2.90;1.30;;;14.80;96.70;;;;;;5104751;27;20546;-77
2021/06/01 04:16:40;;;;;;;2.05;1.20;;;14.80;96.70;;;;;;5100245;27;20281;-77
2021/06/01 04:19:10;;;;;;;1.30;1.05;;;15.00;96.70;;;;;;5096255;27;20119;-77
2021/06/01 04:21:43;;;;;;;3.58;1.17;;;15.00;96.70;;;;;;5104304;27;20362;-77
2021/06/01 04:24:13;;;;;;;5.78;1.15;;;15.00;96.70;;;;;;5085227;28;20477;-77
2021/06/01 04:26:43;;;;;;;4.03;1.35;;;15.00;96.70;;;;;;5097577;28;20044;-77
2021/06/01 04:29:13;;;;;;;2.92;1.10;;;14.90;96.70;;;;;;5100980;27;20092;-77
2021/06/01 04:31:43;;;;;;;2.28;1.20;;;14.90;96.70;;;;;;5098786;27;20051;-77
2021/06/01 04:34:14;;;;;;;2.25;0.98;;;15.10;96.70;;;;;;5097335;27;20115;-77
2021/06/01 04:36:45;;;;;;;5.53;1.13;;;15.30;96.60;;;;;;5099796;27;20042;-76
2021/06/01 04:39:15;;;;;;;4.85;1.42;;;15.30;96.70;;;;;;5097537;28;20050;-76
2021/06/01 04:41:45;;;;;;;1.67;1.10;;;15.30;96.20;;;;;;5100826;28;20134;-76
2021/06/01 04:44:15;;;;;;;1.50;1.08;;;15.20;96.70;;;;;;5100142;27;20063;-76
2021/06/01 04:46:45;;;;;;;2.97;1.20;;;15.20;96.70;;;;;;5085047;28;20413;-76
2021/06/01 04:49:15;;;;;;;2.00;1.58;;;15.20;96.40;;;;;;5099480;27;20039;-76
2021/06/01 04:51:46;;;;;;;5.25;1.08;;;15.40;96.40;;;;;;5091084;27;20631;-76
2021/06/01 04:54:15;;;;;;;2.22;1.40;;;15.40;95.50;;;;;;5102480;27;20142;-76
2021/06/01 04:56:44;;;;;;;1.95;1.17;;;15.40;96.50;;;;;;5099545;27;20040;-77
2021/06/01 04:59:12;;;;;;;1.60;1.08;;;15.60;96.30;;;;;;5100085;27;20092;-76
2021/06/01 05:01:40;;;;;;;2.97;1.30;;;15.80;95.60;;;;;;5100405;28;20513;-77
2021/06/01 05:04:09;;;;;;;3.85;1.50;;;15.80;95.30;;;;;;5084829;27;20134;-76
2021/06/01 05:06:37;;;;;;;6.18;1.60;;;15.70;95.50;;;;;;5105401;27;20042;-77
2021/06/01 05:09:08;;;;;;;3.22;1.58;;;15.80;95.20;;;;;;5094495;27;20051;-77
2021/06/01 05:11:36;;;;;;;4.88;1.40;;;15.80;96.30;;;;;;5098070;28;20504;-77
2021/06/01 05:14:10;;;;;;;4.25;1.60;;;16.00;95.90;;;;;;5110175;27;20138;-79
2021/06/01 05:16:38;;;;;;;2.17;1.42;;;16.10;96.20;;;;;;5098619;27;20058;-78
2021/06/01 05:19:08;;;;;;;3.58;1.40;;;16.20;96.30;;;;;;5095049;27;20050;-77
2021/06/01 05:21:36;;;;;;;5.38;1.40;;;16.30;95.90;;;;;;5095865;27;20528;-78
2021/06/01 05:24:07;;;;;;;2.75;1.33;;;16.30;95.70;;;;;;5100539;27;20068;-78
2021/06/01 05:26:36;;;;;;;4.40;1.60;;;16.30;96.10;;;;;;5104812;27;20047;-78
2021/06/01 05:29:04;;;;;;;5.78;1.30;;;16.30;96.30;;;;;;5099111;28;20205;-78
2021/06/01 05:31:50;;;;;;;3.20;1.50;;;16.30;96.70;;;;;;5098905;27;20043;-78
2021/06/01 05:34:21;;;;;;;1.75;1.02;;;16.20;96.70;;;;;;5101555;27;20072;-78
2021/06/01 05:36:50;;;;;;;2.20;1.38;;;16.30;96.70;;;;;;5100294;27;20504;-78
2021/06/01 05:39:20;;;;;;;2.25;1.40;;;16.40;96.70;;;;;;5082119;28;20123;-78
2021/06/01 05:41:49;;;;;;;4.22;1.45;;;16.50;96.70;;;;;;5096200;27;20605;-76
2021/06/01 05:44:17;;;;;;;5.90;1.73;;;16.50;96.70;;;;;;5095675;28;20400;-75
2021/06/01 05:46:46;;;;;;;4.18;1.40;;;16.50;96.70;;;;;;5116009;27;20496;-76
2021/06/01 05:49:16;;;;;;;4.55;1.77;;;16.60;96.70;;;;;;5099639;27;20047;-77
2021/06/01 05:51:43;;;;;;;2.90;1.52;;;16.70;96.70;;;;;;5100912;27;20036;-75
2021/06/01 05:54:11;;;;;;;6.03;1.27;;;16.70;96.70;;;;;;5098335;27;20444;-77
2021/06/01 05:56:41;;;;;;;3.90;1.52;;;16.80;96.70;;;;;;5094778;27;20039;-76
2021/06/01 05:59:09;;;;;;;2.75;1.60;;;17.00;96.70;;;;;;5097991;27;20055;-76
2021/06/01 06:01:37;;;;;;;7.68;1.60;;;17.10;96.70;;;;;;5100592;27;20067;-76
2021/06/01 06:04:06;;;;;;;3.97;1.35;;;17.20;96.70;;;;;;5097491;28;20476;-76
2021/06/01 06:06:34;;;;;;;1.98;1.27;;;17.20;96.70;;;;;;5097898;27;20247;-76
2021/06/01 06:09:02;;;;;;;4.40;1.52;;;17.20;96.70;;;;;;5100301;27;20043;-77
2021/06/01 06:11:30;;;;;;;3.10;1.50;;;17.30;96.70;;;;;;5099668;27;20527;-76
2021/06/01 06:14:00;;;;;;;2.83;1.23;;;17.40;96.70;;;;;;5096591;28;20504;-76
2021/06/01 06:16:29;;;;;;;1.75;1.52;;;17.50;96.70;;;;;;5102274;27;20048;-76
2021/06/01 06:18:59;;;;;;;3.90;1.40;;;17.60;96.70;;;;;;5100028;27;20493;-77
2021/06/01 06:21:27;;;;;;;4.13;1.48;;;17.60;96.70;;;;;;5098510;27;20040;-76
2021/06/01 06:23:55;;;;;;;2.85;1.90;;;17.80;96.50;;;;;;5098739;27;20542;-77
2021/06/01 06:26:23;;;;;;;2.25;1.40;;;17.90;96.60;;;;;;5098809;28;20521;-77
2021/06/01 06:28:51;;;;;;;4.10;1.35;;;17.90;96.30;;;;;;5100062;28;20367;-76
2021/06/01 06:31:21;;;;;;;4.20;1.58;;;18.00;96.70;;;;;;5098025;27;20392;-77
2021/06/01 06:33:49;;;;;;;7.30;1.50;;;18.10;96.70;;;;;;5098005;28;20123;-77
2021/06/01 06:36:17;;;;;;;5.82;1.52;;;18.10;96.70;;;;;;5095939;28;20042;-77
2021/06/01 06:38:47;;;;;;;5.95;1.48;;;18.20;96.50;;;;;;5098976;28;20412;-77
2021/06/01 06:41:18;;;;;;;4.22;1.60;;;18.30;96.30;;;;;;5101172;27;20485;-77
2021/06/01 06:43:52;;;;;;;3.45;1.70;;;18.40;96.40;;;;;;5098253;28;20050;-77
2021/06/01 06:46:34;;;;;;;7.05;2.10;;;18.50;96.50;;;;;;5095878;27;20032;-76
2021/06/01 06:49:04;;;;;;;3.55;1.90;;;18.60;96.50;;;;;;5107124;27;20048;-76
2021/06/01 06:51:31;;;;;;;3.95;2.00;;;18.70;96.10;;;;;;5100192;27;20059;-76
2021/06/01 06:54:00;;;;;;;2.85;1.60;;;18.70;95.70;;;;;;5097683;27;20050;-77
2021/06/01 06:56:30;;;;;;;3.47;1.65;;;18.80;95.80;;;;;;5099485;27;20044;-77
2021/06/01 06:58:59;;;;;;;1.98;1.40;;;18.80;95.00;;;;;;5094258;28;20044;-77
2021/06/01 07:01:29;;;;;;;5.13;1.98;;;18.90;95.40;;;;;;5095921;27;20040;-77
2021/06/01 07:03:57;;;;;;;3.65;1.92;;;19.00;95.10;;;;;;5097403;27;20071;-76
2021/06/01 07:06:25;;;;;;;3.70;1.50;;;19.00;94.70;;;;;;5100097;27;20044;-77
2021/06/01 07:08:53;;;;;;;2.72;1.52;;;19.10;94.90;;;;;;5096868;28;20433;-77
2021/06/01 07:11:22;;;;;;;4.20;1.48;;;19.20;93.70;;;;;;5099815;28;20047;-77
2021/06/01 07:14:00;;;;;;;2.65;1.60;;;19.30;92.80;;;;;;5096822;28;20659;-76
2021/06/01 07:16:30;;;;;;;4.30;1.83;;;19.30;93.20;;;;;;5102349;28;20051;-76
2021/06/01 07:18:58;;;;;;;5.18;1.88;;;19.40;92.70;;;;;;5075343;28;20043;-77
2021/06/01 07:21:26;;;;;;;3.40;1.42;;;19.50;92.40;;;;;;5091112;28;20078;-77
2021/06/01 07:23:54;;;;;;;4.75;1.70;;;19.60;92.60;;;;;;5091925;28;20673;-76
2021/06/01 07:26:22;;;;;;;2.30;1.70;;;19.60;92.20;;;;;;5082373;28;20139;-77
2021/06/01 07:28:50;;;;;;;3.95;1.75;;;19.70;91.90;;;;;;5095373;28;20035;-77
2021/06/01 07:31:19;;;;;;;2.83;1.40;;;19.80;91.90;;;;;;5107720;28;20432;-77
2021/06/01 07:33:48;;;;;;;4.15;1.52;;;19.80;91.60;;;;;;5101656;28;20394;-77
2021/06/01 07:36:17;;;;;;;2.50;1.25;;;19.90;92.20;;;;;;5103865;28;20452;-77
2021/06/01 07:38:45;;;;;;;2.90;1.48;;;20.00;91.30;;;;;;5098639;27;20067;-77
2021/06/01 07:41:13;;;;;;;2.20;1.33;;;20.10;90.50;;;;;;5090903;28;20036;-76
2021/06/01 07:43:41;;;;;;;5.65;1.75;;;20.10;90.00;;;;;;5098027;28;20050;-77
2021/06/01 07:46:13;;;;;;;3.80;1.42;;;20.10;89.50;;;;;;5095346;28;20450;-77
2021/06/01 07:48:41;;;;;;;2.50;1.20;;;20.20;89.60;;;;;;5095577;28;20588;-77
2021/06/01 07:51:11;;;;;;;2.50;1.40;;;20.30;89.20;;;;;;5094320;28;20032;-77
2021/06/01 07:53:39;;;;;;;7.13;1.60;;;20.40;89.50;;;;;;5096459;28;20128;-77
2021/06/01 07:56:08;;;;;;;2.50;1.25;;;20.50;88.20;;;;;;5097779;28;20472;-77
2021/06/01 07:58:36;;;;;;;7.30;1.42;;;20.60;86.70;;;;;;5116239;27;20052;-77
2021/06/01 08:01:04;;;;;;;2.65;1.50;;;20.60;86.60;;;;;;5096993;28;20416;-76
2021/06/01 08:03:32;;;;;;;1.52;1.00;;;20.60;86.30;;;;;;5101350;28;20086;-77
2021/06/01 08:06:00;;;;;;;4.25;1.40;;;20.70;86.10;;;;;;5092313;28;20043;-77
2021/06/01 08:08:29;;;;;;;1.88;1.30;;;20.70;85.70;;;;;;5092757;28;20050;-77
2021/06/01 08:10:58;;;;;;;1.73;1.35;;;20.80;85.10;;;;;;5095983;28;20046;-77
2021/06/01 08:13:27;;;;;;;1.80;1.40;;;20.80;85.40;;;;;;5097481;28;20646;-77
2021/06/01 08:15:56;;;;;;;2.17;1.30;;;20.90;84.10;;;;;;5100610;27;20048;-76
2021/06/01 08:18:33;;;;;;;3.60;1.30;;;20.90;84.70;;;;;;5098973;27;20051;-77
2021/06/01 08:21:07;;;;;;;3.78;1.38;;;21.00;85.20;;;;;;5102558;27;20634;-77
2021/06/01 08:23:37;;;;;;;3.13;1.30;;;21.10;84.90;;;;;;5107078;27;20137;-76
2021/06/01 08:26:05;;;;;;;2.08;1.20;;;21.20;84.90;;;;;;5103163;27;20308;-77
2021/06/01 08:28:33;;;;;;;2.75;1.27;;;21.50;83.80;;;;;;5105450;27;20039;-77
2021/06/01 08:31:02;;;;;;;3.00;1.02;;;21.50;83.50;;;;;;5096880;27;20036;-76
2021/06/01 08:33:30;;;;;;;5.28;1.70;;;21.60;82.90;;;;;;5107037;27;20047;-76
2021/06/01 08:35:58;;;;;;;1.38;1.20;;;21.70;82.80;;;;;;5100917;27;20042;-76
2021/06/01 08:38:26;;;;;;;1.88;1.30;;;21.70;83.80;;;;;;5100168;27;20517;-76
2021/06/01 08:40:56;;;;;;;1.63;1.00;;;21.70;83.50;;;;;;5103086;27;20079;-77
2021/06/01 08:43:26;;;;;;;2.05;1.27;;;21.80;83.60;;;;;;5099892;27;20036;-77
2021/06/01 08:45:56;;;;;;;2.60;1.38;;;21.90;83.30;;;;;;5099451;28;20489;-77
2021/06/01 08:48:24;;;;;;;2.95;1.10;;;21.90;82.30;;;;;;5100605;27;20111;-77
2021/06/01 08:50:53;;;;;;;2.47;1.50;;;22.00;81.50;;;;;;5098892;27;20063;-77
2021/06/01 08:53:21;;;;;;;4.80;1.38;;;22.00;80.90;;;;;;5103904;27;20070;-77
2021/06/01 08:55:49;;;;;;;2.28;1.23;;;22.10;80.70;;;;;;5101042;27;20516;-78
2021/06/01 08:58:20;;;;;;;2.08;1.35;;;22.20;81.20;;;;;;5101185;27;20043;-77
2021/06/01 09:00:49;;;;;;;3.38;1.33;;;22.30;80.60;;;;;;5096863;28;20472;-77
2021/06/01 09:03:21;;;;;;;4.22;1.30;;;22.30;79.50;;;;;;5097081;28;20054;-77
2021/06/01 09:06:15;;;;;;;3.80;1.33;;;22.40;78.60;;;;;;5103434;27;20047;-77
2021/06/01 09:22:53;;;;;;;3.33;1.33;;;22.60;78.00;;;;;;5106420;27;20489;-78
2021/06/01 09:25:41;;;;;;;2.83;1.48;;;22.60;78.40;;;;;;5087463;28;20216;-77
2021/06/01 09:28:14;;;;;;;2.65;1.10;;;22.70;78.40;;;;;;5094892;27;20031;-77
2021/06/01 09:30:46;;;;;;;3.45;0.95;;;22.80;78.50;;;;;;5097994;27;20036;-77
2021/06/01 09:33:27;;;;;;;2.92;1.13;;;23.00;77.50;;;;;;5095010;27;20038;-77
2021/06/01 09:35:57;;;;;;;4.25;1.50;;;23.20;77.40;;;;;;5112423;27;20056;-77
2021/06/01 09:38:30;;;;;;;2.10;1.30;;;23.30;77.50;;;;;;5099155;28;20043;-77
2021/06/01 09:41:06;;;;;;;1.33;0.93;;;23.20;76.80;;;;;;5099911;28;20076;-78
2021/06/01 09:43:47;;;;;;;2.97;1.25;;;23.20;76.60;;;;;;5094492;28;20048;-77
2021/06/01 09:46:22;;;;;;;3.05;1.67;;;23.20;77.30;;;;;;5095041;27;20036;-77
2021/06/01 09:48:51;;;;;;;1.67;1.17;;;23.40;76.60;;;;;;5097604;27;20039;-77
2021/06/01 09:51:33;;;;;;;3.47;1.30;;;23.50;75.80;;;;;;5101959;27;20058;-77
2021/06/01 09:54:31;;;;;;;1.88;1.30;;;23.60;75.90;;;;;;5099625;28;20131;-76
2021/06/01 09:57:00;;;;;;;3.58;1.17;;;23.80;76.50;;;;;;5093045;28;20046;-78
2021/06/01 09:59:29;;;;;;;3.30;1.58;;;23.80;75.30;;;;;;5085470;27;20317;-76
2021/06/01 10:01:59;;;;;;;4.15;1.50;;;23.80;75.90;;;;;;5095785;27;20086;-78
2021/06/01 10:04:29;;;;;;;3.70;1.40;;;24.00;75.70;;;;;;5098294;27;20062;-77
2021/06/01 10:06:57;;;;;;;2.83;1.33;;;24.20;75.60;;;;;;5092724;27;20071;-78
2021/06/01 10:09:41;;;;;;;2.15;1.33;;;24.20;74.20;;;;;;5107530;27;20051;-77
2021/06/01 10:12:11;;;;;;;2.92;1.42;;;24.10;74.60;;;;;;5098145;28;20111;-78
2021/06/01 10:14:40;;;;;;;3.28;1.65;;;24.30;75.00;;;;;;5092769;27;20040;-78
2021/06/01 10:17:23;;;;;;;2.33;1.40;;;24.30;74.70;;;;;;5098592;27;20455;-78
2021/06/01 10:19:51;;;;;;;2.08;1.20;;;24.40;74.90;;;;;;5078098;28;20043;-78
2021/06/01 10:22:20;;;;;;;2.88;1.45;;;24.50;74.80;;;;;;5115647;27;20057;-78
2021/06/01 10:24:49;;;;;;;2.40;1.20;;;24.50;73.80;;;;;;5098073;28;20127;-77
2021/06/01 10:27:17;;;;;;;4.97;1.63;;;24.60;74.20;;;;;;5097267;27;20043;-78
2021/06/01 10:29:46;;;;;;;1.88;1.33;;;24.60;74.40;;;;;;5097691;27;20031;-78
2021/06/01 10:32:15;;;;;;;2.90;1.92;;;24.90;74.40;;;;;;5102918;27;20425;-78
2021/06/01 10:34:46;;;;;;;6.88;5.25;;;25.10;74.30;;;;;;5099561;27;20039;-78
2021/06/01 10:52:14;;;;;;;2.28;1.20;;;25.40;73.80;;;;;;5086605;28;20047;-78
2021/06/01 10:54:57;;;;;;;3.67;1.55;;;25.60;74.20;;;;;;5094446;28;20043;-78
2021/06/01 10:57:54;;;;;;;2.20;1.13;;;25.70;74.20;;;;;;5098725;28;20146;-78
2021/06/01 11:03:14;;;;;;;2.20;1.30;;;25.90;74.30;;;;;;5096797;28;20447;-78
2021/06/01 11:06:15;;;;;;;3.17;1.50;;;25.90;73.90;;;;;;5099882;27;20062;-78
2021/06/01 11:08:45;;;;;;;2.63;1.02;;;26.00;73.70;;;;;;5055503;28;20228;-78
2021/06/01 11:11:35;;;;;;;2.03;1.30;;;26.00;74.70;;;;;;5055750;28;20059;-78
2021/06/01 11:14:28;;;;;;;1.85;1.02;;;26.10;72.80;;;;;;5055153;28;20424;-78
2021/06/01 11:16:57;;;;;;;3.08;1.13;;;26.10;72.70;;;;;;5024762;28;20435;-78
2021/06/01 11:35:22;;;;;;;3.47;1.38;;;26.70;69.80;;;;;;5040992;28;20048;-78
2021/06/01 11:38:17;;;;;;;3.38;1.20;;;26.70;69.80;;;;;;5035950;28;20053;-78
2021/06/01 11:43:17;;;;;;;2.88;1.10;;;26.90;70.00;;;;;;5071716;28;20044;-78
2021/06/01 11:45:52;;;;;;;3.35;1.13;;;26.90;69.60;;;;;;5099061;28;20039;-78
2021/06/01 11:48:28;;;;;;;8.70;1.70;;;26.90;69.30;;;;;;5100930;27;20035;-78
2021/06/01 11:51:11;;;;;;;3.08;1.38;;;26.90;69.50;;;;;;5106466;27;20047;-78
2021/06/01 11:53:52;;;;;;;3.58;1.52;;;27.10;69.40;;;;;;5098815;28;20566;-78
2021/06/01 11:56:39;;;;;;;1.30;0.90;;;27.20;69.70;;;;;;5102086;27;20070;-78
2021/06/01 12:02:22;;;;;;;1.75;1.15;;;27.20;69.10;;;;;;5095168;28;20055;-78
2021/06/01 12:13:30;;;;;;;1.80;1.20;;;27.60;68.60;;;;;;5102654;27;20396;-78
2021/06/01 12:18:53;;;;;;;4.47;1.40;;;27.90;68.80;;;;;;5104463;27;20031;-78
2021/06/01 12:21:25;;;;;;;3.67;1.40;;;27.70;69.10;;;;;;5099577;27;20305;-78
2021/06/01 12:24:02;;;;;;;2.60;1.23;;;27.60;69.60;;;;;;5113373;27;20048;-78
2021/06/01 12:26:59;;;;;;;3.70;1.55;;;27.70;69.30;;;;;;5096702;27;20047;-78
2021/06/01 12:32:29;;;;;;;1.60;1.40;;;27.70;69.30;;;;;;5100840;27;20055;-78
2021/06/01 13:07:24;;;;;;;2.30;1.23;;;28.00;69.60;;;;;;5094852;27;20112;-78
2021/06/01 13:40:09;;;;;;;1.95;1.35;;;29.20;66.80;;;;;;5120488;27;20529;-78
2021/06/01 13:56:28;;;;;;;3.58;1.42;;;28.90;68.00;;;;;;5102115;27;20508;-78
2021/06/01 13:59:06;;;;;;;3.65;1.17;;;29.20;67.30;;;;;;5102368;27;20051;-78
2021/06/01 14:21:04;;;;;;;2.42;1.15;;;29.80;64.90;;;;;;5099608;27;20530;-78
2021/06/01 15:08:19;;;;;;;2.55;1.10;;;31.00;60.60;;;;;;5101063;27;20039;-78
2021/06/01 15:30:16;;;;;;;1.20;1.00;;;31.30;61.00;;;;;;5100442;28;20044;-78
2021/06/01 16:12:02;;;;;;;3.65;0.90;;;30.30;60.60;;;;;;5097500;28;20154;-78
2021/06/01 17:04:51;;;;;;;2.38;0.85;;;32.70;54.50;;;;;;5118635;27;20046;-78
2021/06/01 17:07:35;;;;;;;2.15;0.90;;;32.70;54.60;;;;;;5098925;27;20121;-78
2021/06/01 17:12:55;;;;;;;1.75;1.10;;;32.50;54.40;;;;;;5098133;27;20039;-79
2021/06/01 17:15:25;;;;;;;2.38;1.00;;;32.50;54.90;;;;;;5098032;27;20047;-78
2021/06/01 17:17:59;;;;;;;1.92;0.90;;;32.50;54.80;;;;;;5098094;27;20128;-76
2021/06/01 17:23:30;;;;;;;2.38;0.88;;;32.60;55.00;;;;;;5099708;27;20463;-78
2021/06/01 17:36:58;;;;;;;1.70;0.82;;;31.80;55.60;;;;;;5095108;28;20063;-79
2021/06/01 17:39:27;;;;;;;1.20;0.90;;;31.30;56.50;;;;;;5098894;27;20452;-78
2021/06/01 17:41:57;;;;;;;1.25;0.80;;;31.10;56.60;;;;;;5097913;28;20408;-78
2021/06/01 17:44:26;;;;;;;1.13;0.80;;;30.70;57.10;;;;;;5107992;27;20052;-78
2021/06/01 17:47:21;;;;;;;0.98;0.80;;;31.20;57.00;;;;;;5086309;28;20071;-78
2021/06/01 17:49:51;;;;;;;0.88;0.70;;;31.40;56.50;;;;;;5076084;28;20190;-78
2021/06/01 17:52:23;;;;;;;1.98;0.60;;;31.60;56.30;;;;;;5078705;28;20044;-78
2021/06/01 17:54:52;;;;;;;2.13;0.70;;;31.00;56.20;;;;;;5074745;28;20144;-78
2021/06/01 17:57:22;;;;;;;3.28;0.73;;;30.40;56.60;;;;;;5082189;28;20048;-76
2021/06/01 17:59:51;;;;;;;1.48;1.00;;;29.90;57.50;;;;;;5101796;27;20429;-77
2021/06/01 18:02:22;;;;;;;1.67;0.90;;;29.50;57.80;;;;;;5096022;28;20766;-77
2021/06/01 18:04:53;;;;;;;1.10;0.77;;;29.10;58.60;;;;;;5068392;28;20569;-75
2021/06/01 18:07:56;;;;;;;2.40;0.80;;;29.40;58.30;;;;;;5097302;28;20050;-75
2021/06/01 19:06:42;;;;;;;4.15;2.33;;;23.60;70.40;;;;;;5096763;28;20209;-77
2021/06/01 19:42:44;;;;;;;4.13;1.20;;;22.20;74.70;;;;;;5103829;28;20051;-76
2021/06/01 19:50:50;;;;;;;3.80;1.20;;;22.30;74.50;;;;;;5098399;28;20047;-76
2021/06/01 19:53:22;;;;;;;5.63;1.42;;;22.30;74.50;;;;;;5095930;28;20082;-78
2021/06/01 19:55:51;;;;;;;2.47;1.10;;;22.20;74.30;;;;;;5093116;28;20113;-77
2021/06/01 19:58:22;;;;;;;4.43;1.30;;;22.10;74.00;;;;;;5080387;28;20051;-77
2021/06/01 20:00:50;;;;;;;4.50;1.40;;;22.10;73.60;;;;;;5096144;28;20044;-78
2021/06/01 20:03:20;;;;;;;4.68;1.15;;;22.00;73.40;;;;;;5100940;28;20587;-79
2021/06/01 20:05:49;;;;;;;4.25;0.95;;;21.90;73.20;;;;;;5100308;28;20076;-78
2021/06/01 20:08:17;;;;;;;3.63;0.90;;;21.90;73.20;;;;;;5097062;28;20047;-79
2021/06/01 20:10:50;;;;;;;3.92;1.17;;;21.80;73.20;;;;;;5103489;27;20040;-79
2021/06/01 20:13:20;;;;;;;3.05;1.17;;;21.80;73.60;;;;;;5098295;28;20608;-76
2021/06/01 20:15:49;;;;;;;4.88;1.52;;;21.70;73.70;;;;;;5093562;27;20369;-78
2021/06/01 20:18:21;;;;;;;3.30;1.70;;;21.70;74.10;;;;;;5096031;27;20044;-77
2021/06/01 20:20:52;;;;;;;2.58;1.10;;;21.60;74.40;;;;;;5080240;28;20495;-80
2021/06/01 20:23:23;;;;;;;1.70;1.02;;;21.60;75.40;;;;;;5094942;27;20036;-80
2021/06/01 20:25:53;;;;;;;2.28;0.90;;;21.60;76.60;;;;;;5099920;27;20071;-79
2021/06/01 20:28:28;;;;;;;2.28;0.82;;;21.70;76.60;;;;;;5116934;27;20039;-79
2021/06/01 20:31:07;;;;;;;3.00;1.20;;;21.80;76.80;;;;;;5116702;27;20050;-78
2021/06/01 20:33:38;;;;;;;2.13;0.90;;;21.90;76.70;;;;;;5099034;27;20100;-77